Time;durP1;ratioP1;P1;durP2;ratioP2;P2;SDS_P1;SDS_P2;PMS_P1;PMS_P2;Temp;Humidity;BMP_temperature;BMP_pressure;BME280_temperature;BME280_humidity;BME280_pressure;Samples;Min_cycle;Max_cycle;Signal;HPM_P1;HPM_P2
2023/04/10 00:02:15;;;;;;;1999.90;999.90;;;;;;;10.31;51.26;100916.06;5015931;28;20426;-75
2023/04/10 00:04:41;;;;;;;1999.90;999.90;;;;;;;10.33;51.27;100914.81;5026598;28;20490;-75
2023/04/10 00:07:06;;;;;;;1999.90;999.90;;;;;;;10.33;51.49;100917.50;5023357;28;20390;-75
2023/04/10 00:09:31;;;;;;;1999.90;999.90;;;;;;;10.34;51.10;100913.72;5034379;28;20926;-75
2023/04/10 00:11:57;;;;;;;1999.90;999.90;;;;;;;10.35;51.31;100917.25;5030862;28;20423;-75
2023/04/10 00:14:23;;;;;;;1999.90;999.90;;;;;;;10.40;51.24;100914.69;5043003;28;20497;-75
2023/04/10 00:16:49;;;;;;;1999.90;999.90;;;;;;;10.46;51.68;100921.06;5021301;28;20387;-75
2023/04/10 00:19:15;;;;;;;1999.90;999.90;;;;;;;10.47;51.48;100923.56;5019797;28;20480;-75
2023/04/10 00:21:41;;;;;;;1999.90;999.90;;;;;;;10.38;52.07;100922.22;5013418;28;20495;-75
2023/04/10 00:24:06;;;;;;;1999.90;999.90;;;;;;;10.21;52.29;100930.19;5028277;28;20429;-75
2023/04/10 00:26:31;;;;;;;1999.90;999.90;;;;;;;10.20;52.58;100922.28;5026144;28;20429;-75
2023/04/10 00:28:57;;;;;;;1999.90;999.90;;;;;;;10.17;52.99;100931.72;5040669;28;20449;-75
2023/04/10 00:31:22;;;;;;;1999.90;999.90;;;;;;;10.15;52.90;100931.09;5031068;28;20473;-75
2023/04/10 00:33:47;;;;;;;1999.90;999.90;;;;;;;10.05;53.27;100933.50;5019561;28;20389;-75
2023/04/10 00:36:12;;;;;;;1999.90;999.90;;;;;;;10.09;53.43;100926.56;5012604;28;20440;-75
2023/04/10 00:38:38;;;;;;;1999.90;999.90;;;;;;;10.08;53.60;100922.22;5023136;28;20399;-75
2023/04/10 00:41:03;;;;;;;1999.90;999.90;;;;;;;10.06;53.93;100927.03;5017931;28;20385;-75
2023/04/10 00:43:30;;;;;;;1999.90;999.90;;;;;;;10.04;53.93;100912.91;5027996;28;20939;-74
2023/04/10 00:45:55;;;;;;;1999.90;999.90;;;;;;;10.00;54.21;100932.56;5018368;28;20387;-75
2023/04/10 00:48:20;;;;;;;1999.90;999.90;;;;;;;9.99;54.35;100922.78;5029481;28;20403;-75
2023/04/10 00:50:46;;;;;;;1999.90;999.90;;;;;;;9.95;54.31;100929.69;5017895;28;20407;-75
2023/04/10 00:53:11;;;;;;;1999.90;999.90;;;;;;;9.92;54.44;100925.56;5028613;28;20397;-75
2023/04/10 00:55:37;;;;;;;1999.90;999.90;;;;;;;9.89;54.59;100917.91;5027332;28;20393;-75
2023/04/10 00:58:05;;;;;;;1999.90;999.90;;;;;;;9.86;54.53;100919.19;5020912;28;20391;-75
2023/04/10 01:00:31;;;;;;;1999.90;999.90;;;;;;;9.86;54.54;100924.63;5019428;28;21015;-75
2023/04/10 01:02:56;;;;;;;1999.90;999.90;;;;;;;9.84;54.60;100921.31;5029095;28;20934;-74
2023/04/10 01:05:23;;;;;;;1999.90;999.90;;;;;;;9.83;54.74;100922.38;5022777;28;20468;-75
2023/04/10 01:08:11;;;;;;;1999.90;999.90;;;;;;;9.80;54.56;100919.28;5020173;28;20395;-75
2023/04/10 01:10:58;;;;;;;1999.90;999.90;;;;;;;9.62;55.20;100916.59;5031215;28;20397;-75
2023/04/10 01:13:42;;;;;;;1999.90;999.90;;;;;;;9.66;54.92;100913.22;5017381;28;20391;-75
2023/04/10 01:16:19;;;;;;;1999.90;985.80;;;;;;;9.60;55.25;100913.31;5031666;28;20464;-75
2023/04/10 01:18:52;;;;;;;1999.90;999.90;;;;;;;9.54;55.49;100916.91;5013518;28;20470;-75
2023/04/10 01:21:21;;;;;;;1999.90;999.90;;;;;;;9.50;55.59;100908.44;5017584;28;20421;-75
2023/04/10 01:24:14;;;;;;;1739.50;999.90;;;;;;;9.58;55.70;100918.94;5021853;28;20397;-75
2023/04/10 01:26:46;;;;;;;1999.90;999.90;;;;;;;9.58;55.53;100913.50;5043125;28;20411;-75
2023/04/10 01:29:18;;;;;;;1999.90;999.90;;;;;;;9.58;55.42;100912.72;5016613;28;20545;-75
2023/04/10 01:31:49;;;;;;;1645.82;999.90;;;;;;;9.56;55.41;100921.03;5031810;28;20399;-75
2023/04/10 01:34:19;;;;;;;1541.68;999.90;;;;;;;9.50;55.70;100930.06;5027074;28;20435;-75
2023/04/10 01:36:55;;;;;;;1108.50;999.90;;;;;;;9.39;56.11;100923.53;5027830;28;20397;-75
2023/04/10 01:39:22;;;;;;;1147.78;999.90;;;;;;;9.30;56.14;100929.47;5020450;28;20403;-75
2023/04/10 01:41:51;;;;;;;1144.82;999.90;;;;;;;9.16;56.08;100917.97;5019719;28;20480;-75
2023/04/10 01:44:20;;;;;;;826.47;769.30;;;;;;;8.93;56.80;100920.50;5010950;28;20396;-75
2023/04/10 01:46:46;;;;;;;683.90;640.72;;;;;;;8.89;56.52;100915.75;5039854;28;20840;-74
2023/04/10 01:49:12;;;;;;;601.15;564.97;;;;;;;8.70;57.03;100923.81;5022807;28;20396;-75
2023/04/10 01:51:38;;;;;;;59.30;56.08;;;;;;;8.72;57.18;100920.91;5024090;28;20391;-74
2023/04/10 01:54:04;;;;;;;13.47;12.37;;;;;;;8.86;57.23;100931.38;5038719;28;20411;-75
2023/04/10 01:56:31;;;;;;;21.83;20.33;;;;;;;8.86;56.71;100922.41;5030406;28;20493;-75
2023/04/10 01:58:57;;;;;;;10.60;9.65;;;;;;;8.66;57.10;100916.41;5016267;28;20404;-75
2023/04/10 02:01:23;;;;;;;9.40;8.00;;;;;;;8.64;57.66;100921.16;5042659;28;20421;-75
2023/04/10 02:03:48;;;;;;;7.60;6.90;;;;;;;8.49;57.63;100913.41;5019893;28;20411;-75
2023/04/10 02:06:23;;;;;;;7.40;6.55;;;;;;;8.58;58.00;100906.69;5018133;28;20494;-75
2023/04/10 02:09:06;;;;;;;7.37;6.37;;;;;;;8.52;58.39;100912.97;5039370;28;20407;-74
2023/04/10 02:11:57;;;;;;;6.37;5.50;;;;;;;8.56;57.77;100900.66;5036033;28;20433;-75
2023/04/10 02:14:27;;;;;;;7.13;6.13;;;;;;;8.41;58.09;100900.16;5036217;28;20497;-76
2023/04/10 02:16:54;;;;;;;8.43;6.40;;;;;;;8.51;58.51;100903.22;5027068;28;20390;-75
2023/04/10 02:19:22;;;;;;;7.90;6.15;;;;;;;8.34;58.94;100894.81;5021138;28;20403;-75
2023/04/10 02:21:48;;;;;;;7.78;6.47;;;;;;;8.39;58.76;100893.34;5031253;28;20442;-75
2023/04/10 02:24:14;;;;;;;9.68;6.93;;;;;;;8.39;58.69;100896.88;5031609;28;20405;-75
2023/04/10 02:26:50;;;;;;;10.27;7.20;;;;;;;8.37;58.57;100898.13;5025235;28;20470;-74
2023/04/10 02:29:16;;;;;;;9.65;7.43;;;;;;;8.42;58.75;100895.59;5030273;28;20401;-75
2023/04/10 02:31:42;;;;;;;7.20;6.35;;;;;;;8.39;58.49;100901.44;5031158;28;20474;-74
2023/04/10 02:34:07;;;;;;;7.75;6.57;;;;;;;8.47;58.20;100901.16;5015863;28;20481;-75
2023/04/10 02:36:36;;;;;;;9.73;6.60;;;;;;;8.48;58.00;100900.94;5025059;28;20490;-75
2023/04/10 02:39:02;;;;;;;8.30;6.68;;;;;;;8.38;58.45;100891.69;5020426;28;20967;-75
2023/04/10 02:41:28;;;;;;;7.88;6.28;;;;;;;8.36;58.98;100894.63;5031823;28;20492;-75
2023/04/10 02:43:53;;;;;;;9.60;7.07;;;;;;;8.29;59.21;100886.56;5029075;28;20476;-75
2023/04/10 02:46:18;;;;;;;7.13;6.23;;;;;;;8.31;59.09;100889.03;5024297;28;20399;-75
2023/04/10 02:48:43;;;;;;;7.90;6.87;;;;;;;8.31;58.94;100884.47;5021666;28;20894;-75
2023/04/10 02:51:09;;;;;;;7.93;6.53;;;;;;;8.30;58.69;100890.06;5015948;28;20455;-75
2023/04/10 02:53:34;;;;;;;8.47;6.77;;;;;;;8.33;58.79;100886.97;5043894;28;20438;-75
2023/04/10 02:55:59;;;;;;;7.93;6.87;;;;;;;8.32;59.00;100880.72;5026227;28;20404;-75
2023/04/10 02:58:26;;;;;;;8.23;6.93;;;;;;;8.26;58.98;100878.88;5025213;28;20434;-75
2023/04/10 03:00:52;;;;;;;8.02;6.47;;;;;;;8.27;59.34;100882.38;5033502;28;20424;-75
2023/04/10 03:03:20;;;;;;;9.57;6.57;;;;;;;8.23;59.04;100876.59;5030565;28;20393;-75
2023/04/10 03:05:47;;;;;;;8.02;6.60;;;;;;;8.22;58.78;100874.13;5021286;28;20391;-75
2023/04/10 03:08:13;;;;;;;7.80;6.53;;;;;;;8.17;58.88;100873.94;5039717;28;20461;-75
2023/04/10 03:10:38;;;;;;;8.00;6.60;;;;;;;8.21;58.81;100865.19;5034146;28;20397;-75
2023/04/10 03:13:03;;;;;;;6.93;6.00;;;;;;;8.21;58.47;100873.28;5030431;28;20396;-75
2023/04/10 03:15:29;;;;;;;8.23;6.17;;;;;;;8.26;58.29;100869.94;5021232;28;20874;-75
2023/04/10 03:17:55;;;;;;;8.17;6.60;;;;;;;8.29;58.35;100867.66;5029607;28;20527;-75
2023/04/10 03:20:20;;;;;;;6.90;5.90;;;;;;;8.37;57.65;100863.00;5020765;28;20736;-74
2023/04/10 03:22:45;;;;;;;6.70;5.70;;;;;;;8.41;58.01;100865.06;5032064;28;20418;-75
2023/04/10 03:25:11;;;;;;;7.23;6.43;;;;;;;8.40;57.61;100857.19;5014706;28;20393;-75
2023/04/10 03:27:37;;;;;;;6.77;5.57;;;;;;;8.44;57.66;100853.81;5035098;28;20764;-74
2023/04/10 03:30:02;;;;;;;5.90;5.40;;;;;;;8.48;57.17;100846.94;5020417;28;20854;-75
2023/04/10 03:32:29;;;;;;;6.00;5.40;;;;;;;8.46;57.27;100848.22;5030321;28;20464;-75
2023/04/10 03:34:57;;;;;;;5.97;5.30;;;;;;;8.44;57.08;100850.28;5033759;28;20557;-75
2023/04/10 03:37:22;;;;;;;7.35;5.80;;;;;;;8.46;57.37;100834.69;5044421;28;20924;-75
2023/04/10 03:39:47;;;;;;;5.90;5.30;;;;;;;8.53;57.42;100838.97;5021453;28;20405;-75
2023/04/10 03:42:13;;;;;;;5.90;5.40;;;;;;;8.62;56.68;100834.97;5014357;28;20783;-75
2023/04/10 03:44:38;;;;;;;6.90;5.60;;;;;;;8.64;56.89;100830.16;5029005;28;20467;-75
2023/04/10 03:47:03;;;;;;;5.57;4.97;;;;;;;8.57;57.14;100829.38;5018150;28;20838;-75
2023/04/10 03:49:31;;;;;;;6.30;5.13;;;;;;;8.45;56.75;100823.06;5032991;28;20403;-74
2023/04/10 03:51:56;;;;;;;8.68;5.97;;;;;;;8.41;56.51;100829.13;5032329;28;20389;-75
2023/04/10 03:54:22;;;;;;;5.63;5.13;;;;;;;8.40;56.72;100828.28;5025084;28;20387;-75
2023/04/10 03:56:47;;;;;;;6.37;5.37;;;;;;;8.38;56.44;100826.88;5026446;28;20886;-75
2023/04/10 03:59:12;;;;;;;6.80;6.00;;;;;;;8.33;56.78;100831.06;5013958;28;20443;-75
2023/04/10 04:01:38;;;;;;;6.33;5.70;;;;;;;8.34;56.40;100831.88;5042906;28;20407;-75
2023/04/10 04:04:03;;;;;;;6.37;5.63;;;;;;;8.35;56.85;100836.25;5025112;28;20398;-74
2023/04/10 04:06:30;;;;;;;6.93;5.63;;;;;;;8.49;56.95;100835.09;5035770;28;20449;-75
2023/04/10 04:08:55;;;;;;;7.43;6.13;;;;;;;8.59;56.98;100835.41;5039021;28;20484;-75
2023/04/10 04:11:20;;;;;;;6.00;5.37;;;;;;;8.64;57.17;100842.81;5025199;28;20835;-75
2023/04/10 04:13:45;;;;;;;6.73;5.73;;;;;;;8.61;56.84;100832.47;5023674;28;20422;-75
2023/04/10 04:16:11;;;;;;;6.13;5.50;;;;;;;8.45;57.40;100830.34;5032333;28;20801;-75
2023/04/10 04:18:37;;;;;;;6.40;5.37;;;;;;;8.28;57.27;100825.50;5027513;28;20401;-75
2023/04/10 04:21:02;;;;;;;6.10;5.50;;;;;;;8.22;57.13;100834.47;5025200;28;20398;-75
2023/04/10 04:23:28;;;;;;;5.97;5.35;;;;;;;8.16;57.46;100824.53;5031341;28;20384;-75
2023/04/10 04:25:55;;;;;;;6.80;5.20;;;;;;;8.12;57.45;100825.19;5031334;28;20442;-74
2023/04/10 04:28:21;;;;;;;6.60;5.90;;;;;;;8.08;57.38;100822.09;5042149;28;20481;-75
2023/04/10 04:30:46;;;;;;;6.15;5.55;;;;;;;8.15;57.07;100820.19;5032295;28;20384;-74
2023/04/10 04:33:12;;;;;;;6.67;6.03;;;;;;;8.22;57.37;100818.25;5032089;28;20924;-75
2023/04/10 04:35:37;;;;;;;5.90;5.40;;;;;;;8.31;57.33;100822.34;5024251;28;20770;-75
2023/04/10 04:38:02;;;;;;;6.70;5.70;;;;;;;8.38;56.92;100825.00;5026345;28;20401;-75
2023/04/10 04:40:28;;;;;;;5.97;5.37;;;;;;;8.44;57.13;100823.28;5018089;28;20412;-75
2023/04/10 04:42:53;;;;;;;6.55;5.45;;;;;;;8.48;57.08;100833.41;5022340;28;20426;-75
2023/04/10 04:45:20;;;;;;;5.90;5.33;;;;;;;8.48;57.84;100835.28;5032153;28;20549;-75
2023/04/10 04:47:45;;;;;;;6.90;5.53;;;;;;;8.46;57.78;100838.22;5037426;28;20407;-75
2023/04/10 04:50:11;;;;;;;6.03;5.43;;;;;;;8.45;57.61;100841.16;5031614;28;20392;-75
2023/04/10 04:52:36;;;;;;;8.10;5.68;;;;;;;8.44;57.85;100834.06;5019443;28;20864;-75
2023/04/10 04:55:01;;;;;;;6.10;5.33;;;;;;;8.46;57.94;100840.09;5028087;28;20397;-75
2023/04/10 04:57:26;;;;;;;7.18;5.82;;;;;;;8.39;57.81;100842.88;5018195;28;20402;-75
2023/04/10 04:59:52;;;;;;;7.07;5.37;;;;;;;8.35;58.50;100838.94;5026149;28;20415;-75
2023/04/10 05:02:17;;;;;;;6.28;5.43;;;;;;;8.41;58.38;100839.94;5032025;28;20423;-75
2023/04/10 05:04:43;;;;;;;6.80;5.77;;;;;;;8.42;58.08;100847.81;5038204;28;20411;-75
2023/04/10 05:07:09;;;;;;;8.43;6.33;;;;;;;8.45;57.96;100850.06;5017165;28;20449;-75
2023/04/10 05:09:34;;;;;;;6.73;6.03;;;;;;;8.48;58.33;100851.50;5042549;28;20461;-75
2023/04/10 05:12:00;;;;;;;6.47;5.80;;;;;;;8.50;57.87;100852.94;5021351;28;20487;-75
2023/04/10 05:14:25;;;;;;;7.30;6.17;;;;;;;8.53;58.31;100852.47;5046735;28;20983;-75
2023/04/10 05:16:50;;;;;;;5.63;5.03;;;;;;;8.54;58.00;100858.72;5029657;28;20912;-75
2023/04/10 05:19:16;;;;;;;6.03;5.43;;;;;;;8.55;57.73;100853.09;5036926;28;20502;-75
2023/04/10 05:21:41;;;;;;;7.07;6.10;;;;;;;8.56;58.04;100862.03;5028343;28;20506;-75
2023/04/10 05:24:06;;;;;;;7.90;5.60;;;;;;;8.55;58.05;100846.88;5015690;28;20417;-76
2023/04/10 05:26:32;;;;;;;10.38;7.95;;;;;;;8.51;58.06;100846.47;5028867;28;20423;-75
2023/04/10 05:28:57;;;;;;;20.97;11.83;;;;;;;8.41;57.98;100838.06;5025058;28;20828;-75
2023/04/10 05:31:22;;;;;;;35.17;16.58;;;;;;;8.34;57.80;100838.13;5023249;28;20851;-75
2023/04/10 05:33:47;;;;;;;19.83;10.17;;;;;;;8.28;57.92;100830.06;5039181;28;20388;-75
2023/04/10 05:36:13;;;;;;;11.82;7.90;;;;;;;8.30;57.73;100830.66;5020840;28;20779;-75
2023/04/10 05:38:38;;;;;;;14.60;8.13;;;;;;;8.34;57.59;100835.41;5020988;28;20871;-74
2023/04/10 05:41:03;;;;;;;35.75;17.20;;;;;;;8.43;56.98;100840.56;5025222;28;20770;-74
2023/04/10 05:43:29;;;;;;;32.50;15.93;;;;;;;8.49;57.11;100845.06;5031774;28;20395;-74
2023/04/10 05:45:54;;;;;;;24.80;13.50;;;;;;;8.63;56.86;100849.25;5024967;28;20411;-74
2023/04/10 05:48:19;;;;;;;27.87;13.20;;;;;;;8.76;56.82;100852.66;5019503;28;20484;-74
2023/04/10 05:50:45;;;;;;;18.10;11.35;;;;;;;8.83;56.74;100855.31;5034101;28;20413;-74
2023/04/10 05:53:13;;;;;;;17.23;10.02;;;;;;;8.90;57.00;100850.66;5041343;28;20953;-75
2023/04/10 05:55:39;;;;;;;11.35;6.97;;;;;;;8.90;56.74;100858.78;5030601;28;20410;-74
2023/04/10 05:58:04;;;;;;;18.33;9.32;;;;;;;8.91;56.59;100863.13;5011569;28;20401;-74
2023/04/10 06:00:30;;;;;;;17.67;9.30;;;;;;;8.95;56.83;100853.53;5013927;28;20469;-74
2023/04/10 06:02:55;;;;;;;30.93;13.60;;;;;;;9.02;56.86;100854.28;5031306;28;20429;-75
2023/04/10 06:05:20;;;;;;;11.40;7.72;;;;;;;9.12;56.37;100848.34;5026961;28;20769;-74
2023/04/10 06:07:46;;;;;;;21.37;10.90;;;;;;;9.16;56.08;100853.06;5029128;28;20905;-74
2023/04/10 06:10:11;;;;;;;48.80;21.30;;;;;;;9.11;55.94;100852.09;5027055;28;20397;-74
2023/04/10 06:12:36;;;;;;;14.63;8.87;;;;;;;9.08;55.68;100847.16;5013112;28;20819;-75
2023/04/10 06:15:02;;;;;;;15.43;7.73;;;;;;;9.11;55.60;100849.41;5020559;28;20890;-75
2023/04/10 06:17:27;;;;;;;35.03;16.67;;;;;;;9.12;54.88;100851.06;5023560;28;20411;-74
2023/04/10 06:19:52;;;;;;;7.40;5.77;;;;;;;9.19;54.41;100854.47;5029723;28;20423;-75
2023/04/10 06:22:17;;;;;;;8.50;5.73;;;;;;;9.26;54.37;100844.41;5026097;28;20433;-75
2023/04/10 06:24:43;;;;;;;5.90;5.00;;;;;;;9.34;53.88;100844.13;5027789;28;20423;-75
2023/04/10 06:27:08;;;;;;;5.23;4.73;;;;;;;9.45;53.63;100845.25;5028673;28;20886;-76
2023/04/10 06:29:33;;;;;;;7.20;5.70;;;;;;;9.54;53.33;100844.69;5031047;28;20407;-76
2023/04/10 06:31:59;;;;;;;6.13;5.50;;;;;;;9.65;53.59;100843.09;5029150;28;20493;-75
2023/04/10 06:34:25;;;;;;;6.32;5.72;;;;;;;9.77;53.32;100835.84;5029088;28;20414;-75
2023/04/10 06:36:50;;;;;;;5.83;5.10;;;;;;;9.89;52.84;100845.66;5026762;28;20409;-75
2023/04/10 06:39:16;;;;;;;6.15;5.63;;;;;;;10.00;52.71;100845.91;5024643;28;20415;-75
2023/04/10 06:41:41;;;;;;;7.35;6.65;;;;;;;9.98;52.64;100842.63;5030816;28;20422;-75
2023/04/10 06:44:09;;;;;;;5.50;5.00;;;;;;;10.09;52.84;100841.81;5030692;28;20415;-76
2023/04/10 06:46:35;;;;;;;5.35;4.57;;;;;;;10.21;53.06;100840.78;5046176;28;20411;-75
2023/04/10 06:49:00;;;;;;;5.30;4.80;;;;;;;10.28;52.68;100836.09;5030809;28;20404;-74
2023/04/10 06:51:26;;;;;;;5.32;4.90;;;;;;;10.35;52.51;100833.28;5019140;28;20406;-73
2023/04/10 06:53:51;;;;;;;5.00;4.60;;;;;;;10.46;52.17;100834.34;5032780;28;21008;-73
2023/04/10 06:56:16;;;;;;;5.77;4.63;;;;;;;10.54;52.16;100836.72;5034352;28;20407;-73
2023/04/10 06:58:45;;;;;;;5.50;5.10;;;;;;;10.65;51.73;100825.03;5032065;28;20866;-74
2023/04/10 07:01:10;;;;;;;106.97;101.53;;;;;;;10.66;51.15;100819.41;5032128;28;20453;-75
2023/04/10 07:03:35;;;;;;;431.87;407.37;;;;;;;10.73;51.20;100822.81;5025695;28;20413;-75
2023/04/10 07:06:02;;;;;;;1114.07;999.90;;;;;;;10.75;50.79;100825.28;5044864;28;20420;-74
2023/04/10 07:08:27;;;;;;;1166.28;999.90;;;;;;;10.82;50.86;100825.97;5032730;28;20399;-75
2023/04/10 07:10:52;;;;;;;1031.03;945.53;;;;;;;10.96;50.63;100830.09;5037249;28;20757;-74
2023/04/10 07:13:17;;;;;;;1999.90;999.90;;;;;;;11.02;49.91;100831.03;5032139;28;20418;-75
2023/04/10 07:15:43;;;;;;;1999.90;999.90;;;;;;;11.16;49.72;100829.69;5023191;28;20499;-75
2023/04/10 07:18:08;;;;;;;1999.90;999.90;;;;;;;11.27;49.59;100824.22;5019510;28;20412;-75
2023/04/10 07:20:33;;;;;;;1672.30;727.20;;;;;;;11.36;49.21;100830.13;5032567;28;20403;-74
2023/04/10 07:22:59;;;;;;;1999.90;999.90;;;;;;;11.48;48.61;100820.03;5034036;28;20507;-74
2023/04/10 07:25:24;;;;;;;1999.90;999.90;;;;;;;11.58;48.73;100820.25;5025936;28;20424;-75
2023/04/10 07:27:50;;;;;;;1999.90;999.90;;;;;;;11.63;47.86;100817.59;5031751;28;20406;-74
2023/04/10 07:30:15;;;;;;;1999.90;999.90;;;;;;;11.66;47.71;100811.69;5031018;28;20415;-77
2023/04/10 07:32:44;;;;;;;1999.90;999.90;;;;;;;11.74;47.01;100815.94;5031071;28;20797;-75
2023/04/10 07:35:09;;;;;;;1999.90;999.90;;;;;;;11.76;46.71;100814.63;5030214;28;20415;-75
2023/04/10 07:37:34;;;;;;;1999.90;999.90;;;;;;;11.78;46.91;100811.69;5029451;28;20964;-75
2023/04/10 07:40:01;;;;;;;1999.90;999.90;;;;;;;11.85;47.48;100813.19;5029354;28;20413;-75
2023/04/10 07:42:26;;;;;;;1999.90;999.90;;;;;;;11.89;47.50;100811.59;5030391;28;20411;-75
2023/04/10 07:44:51;;;;;;;1999.90;999.90;;;;;;;11.96;47.28;100808.72;5036771;28;20413;-75
2023/04/10 07:47:16;;;;;;;1999.90;999.90;;;;;;;11.98;47.10;100814.75;5025784;28;20452;-75
2023/04/10 07:49:42;;;;;;;1999.90;999.90;;;;;;;12.06;46.76;100808.91;5030447;28;20415;-75
2023/04/10 07:52:07;;;;;;;1999.90;999.90;;;;;;;12.18;46.77;100823.25;5032343;28;20940;-77
2023/04/10 07:54:33;;;;;;;1999.90;999.90;;;;;;;12.23;46.15;100817.88;5029171;28;20416;-75
2023/04/10 07:56:59;;;;;;;1999.90;999.90;;;;;;;12.33;46.22;100815.34;5028371;28;20919;-74
2023/04/10 07:59:25;;;;;;;1999.90;999.90;;;;;;;12.47;46.02;100819.38;5031987;28;20406;-74
2023/04/10 08:01:50;;;;;;;1999.90;999.90;;;;;;;12.62;46.09;100817.94;5030682;28;20774;-75
2023/04/10 08:04:16;;;;;;;1999.90;999.90;;;;;;;12.70;46.22;100817.53;5032199;28;20411;-73
2023/04/10 08:06:41;;;;;;;1999.90;999.90;;;;;;;12.79;45.83;100816.84;5024081;28;20819;-74
2023/04/10 08:09:06;;;;;;;1999.90;999.90;;;;;;;12.96;45.38;100814.91;5024541;28;20437;-74
2023/04/10 08:11:33;;;;;;;1999.90;999.90;;;;;;;13.13;45.16;100812.16;5017421;28;20401;-74
2023/04/10 08:14:01;;;;;;;1999.90;999.90;;;;;;;13.31;44.72;100805.56;5029991;28;20474;-74
2023/04/10 08:16:29;;;;;;;1999.90;999.90;;;;;;;13.49;44.69;100811.50;5033389;28;20410;-74
2023/04/10 08:18:56;;;;;;;1999.90;999.90;;;;;;;13.64;44.29;100813.56;5031702;28;20514;-74
2023/04/10 08:21:23;;;;;;;1999.90;999.90;;;;;;;13.67;44.00;100815.78;5030050;28;20437;-73
2023/04/10 08:23:59;;;;;;;1999.90;693.08;;;;;;;13.57;43.05;100815.66;5015048;28;21145;-73
2023/04/10 08:26:28;;;;;;;1999.90;686.25;;;;;;;13.57;43.14;100814.88;5024227;28;20425;-73
2023/04/10 08:28:55;;;;;;;1999.90;591.17;;;;;;;13.63;43.12;100809.22;5028319;28;20435;-74
2023/04/10 08:31:23;;;;;;;1999.90;815.92;;;;;;;13.71;42.94;100811.47;5015073;28;20472;-74
2023/04/10 08:33:48;;;;;;;1999.90;946.13;;;;;;;13.79;42.35;100802.00;5027910;28;20411;-74
2023/04/10 08:36:17;;;;;;;1271.30;401.05;;;;;;;13.91;41.65;100805.38;5021010;28;20855;-74
2023/04/10 08:38:43;;;;;;;1700.97;499.40;;;;;;;14.02;41.88;100810.69;5024330;28;20462;-74
2023/04/10 08:41:17;;;;;;;1182.70;406.17;;;;;;;14.20;41.69;100809.47;5027620;28;20461;-74
2023/04/10 08:43:44;;;;;;;680.03;248.10;;;;;;;14.24;41.67;100809.75;5030942;28;20443;-74
2023/04/10 08:46:10;;;;;;;79.78;46.47;;;;;;;14.27;41.59;100820.16;5023732;28;20391;-74
2023/04/10 08:48:44;;;;;;;4.45;3.63;;;;;;;14.32;40.90;100809.28;5032332;28;20437;-74
2023/04/10 08:51:14;;;;;;;2.65;2.45;;;;;;;14.41;39.78;100807.75;5030125;28;20407;-74
2023/04/10 08:53:42;;;;;;;2.40;2.17;;;;;;;14.52;39.70;100802.09;5027269;28;20518;-74
2023/04/10 08:56:12;;;;;;;2.30;2.20;;;;;;;14.70;39.33;100792.66;5029754;28;20413;-74
2023/04/10 08:58:37;;;;;;;2.40;2.30;;;;;;;14.90;38.54;100795.53;5030836;28;20436;-74
2023/04/10 09:01:04;;;;;;;2.03;1.93;;;;;;;15.26;38.30;100793.75;5031690;28;20789;-74
2023/04/10 09:03:30;;;;;;;2.57;2.47;;;;;;;15.75;37.49;100785.16;5029519;28;20488;-74
2023/04/10 09:05:55;;;;;;;2.80;2.37;;;;;;;16.74;35.88;100784.59;5032075;28;20409;-74
2023/04/10 09:08:21;;;;;;;2.40;2.30;;;;;;;17.33;34.83;100776.44;5019594;28;20388;-74
2023/04/10 09:10:46;;;;;;;3.13;2.83;;;;;;;17.28;35.10;100776.47;5031271;28;20479;-74
2023/04/10 09:13:11;;;;;;;2.37;2.27;;;;;;;17.14;35.41;100773.53;5028780;28;20935;-74
2023/04/10 09:15:57;;;;;;;2.50;2.37;;;;;;;17.03;35.16;100770.00;5046268;28;20922;-74
2023/04/10 09:18:39;;;;;;;2.13;1.92;;;;;;;17.10;34.96;100770.53;5028258;28;20411;-75
2023/04/10 09:21:06;;;;;;;2.17;2.08;;;;;;;17.12;34.48;100762.84;5022164;28;20466;-74
2023/04/10 09:23:31;;;;;;;2.20;2.10;;;;;;;17.37;34.63;100756.44;5030288;28;20895;-75
2023/04/10 09:25:56;;;;;;;2.30;2.20;;;;;;;17.72;34.80;100755.41;5028779;28;20438;-75
2023/04/10 09:28:22;;;;;;;2.13;1.97;;;;;;;18.22;33.72;100745.97;5030290;28;20413;-75
2023/04/10 09:30:47;;;;;;;2.07;1.97;;;;;;;18.51;32.50;100743.22;5025304;28;20420;-74
2023/04/10 09:33:22;;;;;;;2.00;1.95;;;;;;;18.74;32.14;100738.88;5016107;28;20498;-75
2023/04/10 09:35:47;;;;;;;2.03;1.92;;;;;;;19.07;32.39;100741.47;5025056;28;20420;-75
2023/04/10 09:38:16;;;;;;;2.27;2.13;;;;;;;19.20;32.52;100736.41;5020278;28;20868;-75
2023/04/10 09:40:42;;;;;;;1.92;1.85;;;;;;;19.52;32.03;100733.75;5024845;28;20764;-75
2023/04/10 09:43:21;;;;;;;2.00;1.90;;;;;;;19.87;31.80;100724.13;5029839;28;20438;-75
2023/04/10 09:45:56;;;;;;;2.22;2.13;;;;;;;19.84;30.30;100727.50;5026023;28;20391;-74
2023/04/10 09:48:23;;;;;;;2.10;2.00;;;;;;;19.63;30.90;100724.22;5041465;28;20403;-75
2023/04/10 09:50:48;;;;;;;2.17;2.08;;;;;;;19.94;31.11;100711.63;5037573;28;20402;-75
2023/04/10 09:53:18;;;;;;;1.90;1.90;;;;;;;20.39;30.89;100711.97;5022850;28;20437;-75
2023/04/10 09:55:44;;;;;;;2.25;2.15;;;;;;;20.90;30.38;100706.28;5022151;28;20917;-75
2023/04/10 09:58:10;;;;;;;1.98;1.88;;;;;;;21.64;28.67;100713.19;5027957;28;20403;-75
2023/04/10 10:00:46;;;;;;;2.00;1.90;;;;;;;21.98;28.37;100707.94;5024515;28;20977;-75
2023/04/10 10:03:14;;;;;;;1.73;1.73;;;;;;;22.07;28.49;100705.25;5024378;28;20486;-75
2023/04/10 10:05:47;;;;;;;1.90;1.80;;;;;;;22.46;27.87;100708.06;5025131;28;20414;-75
2023/04/10 10:08:14;;;;;;;1.80;1.70;;;;;;;22.16;27.86;100698.63;5026804;28;20908;-75
2023/04/10 10:11:01;;;;;;;1.80;1.70;;;;;;;23.02;27.15;100703.75;5016166;28;20416;-76
2023/04/10 10:13:45;;;;;;;1.27;1.27;;;;;;;24.33;25.84;100695.94;5026352;28;20404;-76
2023/04/10 10:16:20;;;;;;;1.75;1.70;;;;;;;25.49;24.84;100695.13;5021314;28;20422;-75
2023/04/10 10:19:04;;;;;;;2.23;2.13;;;;;;;26.46;23.63;100695.50;5034959;28;20395;-75
2023/04/10 10:21:32;;;;;;;2.00;1.90;;;;;;;27.11;22.74;100693.69;5022545;28;20513;-75
2023/04/10 10:24:00;;;;;;;2.10;2.00;;;;;;;27.43;21.82;100687.13;5030357;28;20381;-75
2023/04/10 10:26:28;;;;;;;1.85;1.77;;;;;;;27.72;20.96;100683.22;5022691;28;20419;-75
2023/04/10 10:28:55;;;;;;;1.70;1.70;;;;;;;28.45;20.03;100688.44;5034992;28;20399;-75
2023/04/10 10:31:22;;;;;;;1.58;1.58;;;;;;;28.69;19.56;100682.69;5021479;28;20411;-75
2023/04/10 10:33:51;;;;;;;1.73;1.57;;;;;;;28.94;19.09;100680.50;5032056;28;20410;-75
2023/04/10 10:36:18;;;;;;;2.00;1.90;;;;;;;29.09;19.60;100676.84;5029080;28;20469;-75
2023/04/10 10:39:08;;;;;;;1.77;1.73;;;;;;;30.21;18.45;100675.66;5035045;28;20425;-76
2023/04/10 10:41:45;;;;;;;1.80;1.80;;;;;;;30.70;18.34;100675.72;5032415;28;20423;-75
2023/04/10 10:44:16;;;;;;;2.13;1.92;;;;;;;30.88;18.38;100670.41;5024296;28;20397;-75
2023/04/10 10:46:48;;;;;;;1.58;1.58;;;;;;;31.20;18.26;100666.09;5027783;28;20514;-75
2023/04/10 10:49:14;;;;;;;1.90;1.90;;;;;;;31.08;18.06;100665.53;5032423;28;20486;-76
2023/04/10 10:51:50;;;;;;;1.90;1.80;;;;;;;30.97;18.18;100667.34;5027596;28;20500;-75
2023/04/10 10:54:32;;;;;;;2.42;2.28;;;;;;;31.06;17.67;100660.31;5016122;28;20393;-75
2023/04/10 10:56:59;;;;;;;3.10;2.20;;;;;;;31.16;18.05;100659.66;5025559;28;20863;-76
2023/04/10 10:59:42;;;;;;;1.50;1.50;;;;;;;31.31;17.45;100655.06;5028102;28;20408;-75
2023/04/10 11:02:18;;;;;;;1.70;1.60;;;;;;;31.11;17.75;100653.59;5023545;28;20457;-76
2023/04/10 11:04:47;;;;;;;1.60;1.60;;;;;;;30.66;18.13;100660.84;5034079;28;20410;-75
2023/04/10 11:07:14;;;;;;;1.70;1.70;;;;;;;30.53;18.43;100647.47;5019810;28;20543;-76
2023/04/10 11:09:55;;;;;;;1.90;1.80;;;;;;;30.58;18.62;100652.75;5022652;28;20448;-76
2023/04/10 11:12:23;;;;;;;1.60;1.60;;;;;;;30.60;18.77;100658.75;5032067;28;20457;-75
2023/04/10 11:14:59;;;;;;;1.40;1.40;;;;;;;30.64;18.37;100654.84;5031842;28;20391;-76
2023/04/10 11:17:48;;;;;;;1.40;1.40;;;;;;;30.68;18.81;100647.31;5025729;28;20452;-75
2023/04/10 11:20:13;;;;;;;1.50;1.50;;;;;;;30.68;18.93;100646.50;5030191;28;20815;-76